AVZ1453 SVSO-SVMT
Flight info
| Callsign | AVZ1453 |
|---|---|
| Flight time | N/A |
| Altitude | 39000 |
| Route | CTN W23 SFD DCT MUN |
| Aircraft | B736/M-SDE2E3FGHIRWXY/LB1 |
Departure
| Time | N/A |
|---|---|
| Airport | Mayor Buenaventura Vivas International Airport (SVSO) |
Arrival
| Time | 2026-04-21 20:14 |
|---|---|
| Airport | José Tadeo Monagas International Airport (SVMT) |
| Time | Latitude | Longitude | Altitude | Speed | Heading |
|---|---|---|---|---|---|
| 2026-04-21 19:30 | 8.33568 | -67.79273 | 32816 ft | 469 kts | 76° |
| 2026-04-21 19:30 | 8.35339 | -67.72887 | 32820 ft | 469 kts | 76° |
| 2026-04-21 19:31 | 8.37102 | -67.66518 | 32818 ft | 469 kts | 76° |
| 2026-04-21 19:31 | 8.38861 | -67.60170 | 32819 ft | 467 kts | 76° |
| 2026-04-21 19:32 | 8.40634 | -67.53762 | 32823 ft | 469 kts | 76° |
| 2026-04-21 19:32 | 8.42400 | -67.47375 | 32819 ft | 468 kts | 76° |
| 2026-04-21 19:33 | 8.44150 | -67.41043 | 32822 ft | 468 kts | 76° |
| 2026-04-21 19:33 | 8.45917 | -67.34642 | 32818 ft | 468 kts | 76° |
| 2026-04-21 19:34 | 8.47670 | -67.28286 | 32825 ft | 469 kts | 76° |
| 2026-04-21 19:34 | 8.49430 | -67.21905 | 32817 ft | 467 kts | 76° |
| 2026-04-21 19:35 | 8.52068 | -67.12334 | 32818 ft | 467 kts | 76° |
| 2026-04-21 19:36 | 8.53822 | -67.05969 | 32821 ft | 467 kts | 76° |
| 2026-04-21 19:36 | 8.55578 | -66.99590 | 32823 ft | 467 kts | 76° |
| 2026-04-21 19:37 | 8.57318 | -66.93263 | 32831 ft | 467 kts | 76° |
| 2026-04-21 19:37 | 8.59080 | -66.86851 | 32835 ft | 468 kts | 76° |
| 2026-04-21 19:38 | 8.60828 | -66.80482 | 32838 ft | 468 kts | 76° |
| 2026-04-21 19:38 | 8.62577 | -66.74103 | 32842 ft | 470 kts | 76° |
| 2026-04-21 19:39 | 8.64332 | -66.67702 | 32844 ft | 470 kts | 76° |
| 2026-04-21 19:39 | 8.66095 | -66.61266 | 32843 ft | 470 kts | 76° |
| 2026-04-21 19:40 | 8.67841 | -66.54890 | 32847 ft | 469 kts | 76° |
| 2026-04-21 19:40 | 8.69594 | -66.48476 | 32845 ft | 469 kts | 76° |
| 2026-04-21 19:41 | 8.71344 | -66.42067 | 32845 ft | 470 kts | 76° |
| 2026-04-21 19:41 | 8.73100 | -66.35641 | 32842 ft | 472 kts | 76° |
| 2026-04-21 19:42 | 8.74853 | -66.29224 | 32838 ft | 472 kts | 76° |
| 2026-04-21 19:42 | 8.76607 | -66.22794 | 32835 ft | 471 kts | 76° |
| 2026-04-21 19:43 | 8.78363 | -66.16350 | 32842 ft | 471 kts | 76° |
| 2026-04-21 19:43 | 8.80116 | -66.09915 | 32842 ft | 471 kts | 76° |
| 2026-04-21 19:44 | 8.81865 | -66.03490 | 32845 ft | 473 kts | 76° |
| 2026-04-21 19:44 | 8.83616 | -65.97051 | 32848 ft | 473 kts | 76° |
| 2026-04-21 19:45 | 8.85381 | -65.90560 | 32849 ft | 474 kts | 76° |
| 2026-04-21 19:45 | 8.87138 | -65.84086 | 32851 ft | 475 kts | 76° |
| 2026-04-21 19:46 | 8.88894 | -65.77617 | 32854 ft | 475 kts | 76° |
| 2026-04-21 19:46 | 8.90652 | -65.71137 | 32859 ft | 472 kts | 76° |
| 2026-04-21 19:47 | 8.92396 | -65.64698 | 32865 ft | 472 kts | 76° |
| 2026-04-21 19:47 | 8.94140 | -65.58263 | 32863 ft | 473 kts | 76° |
| 2026-04-21 19:48 | 8.95894 | -65.51782 | 32864 ft | 473 kts | 76° |
| 2026-04-21 19:48 | 8.97644 | -65.45309 | 32863 ft | 474 kts | 76° |
| 2026-04-21 19:49 | 8.99389 | -65.38861 | 32861 ft | 473 kts | 76° |
| 2026-04-21 19:49 | 9.01139 | -65.32393 | 32863 ft | 472 kts | 76° |
| 2026-04-21 19:50 | 9.02576 | -65.27062 | 32862 ft | 474 kts | 76° |
| 2026-04-21 19:50 | 9.04602 | -65.19540 | 32862 ft | 473 kts | 76° |
| 2026-04-21 19:51 | 9.06331 | -65.13121 | 32857 ft | 471 kts | 77° |
| 2026-04-21 19:51 | 9.08083 | -65.06617 | 32861 ft | 475 kts | 76° |
| 2026-04-21 19:52 | 9.09824 | -65.00143 | 32852 ft | 473 kts | 76° |
| 2026-04-21 19:52 | 9.11555 | -64.93699 | 32852 ft | 473 kts | 77° |
| 2026-04-21 19:53 | 9.13290 | -64.87238 | 32862 ft | 473 kts | 76° |
| 2026-04-21 19:53 | 9.15015 | -64.80810 | 32858 ft | 472 kts | 76° |
| 2026-04-21 19:53 | 9.15878 | -64.77595 | 32653 ft | 466 kts | 76° |
| 2026-04-21 19:54 | 9.16730 | -64.74428 | 32218 ft | 458 kts | 76° |
| 2026-04-21 19:54 | 9.17566 | -64.71318 | 31635 ft | 454 kts | 76° |
| 2026-04-21 19:54 | 9.18396 | -64.68224 | 30916 ft | 453 kts | 76° |
| 2026-04-21 19:54 | 9.19222 | -64.65135 | 30129 ft | 454 kts | 76° |
| 2026-04-21 19:55 | 9.20051 | -64.62034 | 29429 ft | 452 kts | 76° |
| 2026-04-21 19:55 | 9.20874 | -64.58952 | 28870 ft | 446 kts | 75° |
| 2026-04-21 19:55 | 9.21679 | -64.55944 | 28295 ft | 442 kts | 75° |
| 2026-04-21 19:55 | 9.22483 | -64.52940 | 27700 ft | 438 kts | 75° |
| 2026-04-21 19:56 | 9.23284 | -64.49941 | 27096 ft | 434 kts | 75° |
| 2026-04-21 19:56 | 9.24071 | -64.46993 | 26504 ft | 430 kts | 75° |
| 2026-04-21 19:56 | 9.24852 | -64.44069 | 25903 ft | 427 kts | 75° |
| 2026-04-21 19:56 | 9.25632 | -64.41148 | 25305 ft | 423 kts | 75° |
| 2026-04-21 19:57 | 9.26394 | -64.38291 | 24715 ft | 419 kts | 75° |
| 2026-04-21 19:57 | 9.27161 | -64.35426 | 24124 ft | 415 kts | 74° |
| 2026-04-21 19:57 | 9.27915 | -64.32599 | 23542 ft | 410 kts | 75° |
| 2026-04-21 19:57 | 9.28653 | -64.29826 | 22968 ft | 406 kts | 74° |
| 2026-04-21 19:58 | 9.29395 | -64.27042 | 22392 ft | 401 kts | 75° |
| 2026-04-21 19:58 | 9.30118 | -64.24325 | 21853 ft | 396 kts | 74° |
| 2026-04-21 19:58 | 9.30839 | -64.21616 | 21308 ft | 392 kts | 74° |
| 2026-04-21 19:58 | 9.31555 | -64.18928 | 20745 ft | 389 kts | 74° |
| 2026-04-21 19:59 | 9.32258 | -64.16290 | 20182 ft | 385 kts | 74° |
| 2026-04-21 19:59 | 9.32962 | -64.13646 | 19622 ft | 382 kts | 74° |
| 2026-04-21 19:59 | 9.33653 | -64.11047 | 19069 ft | 379 kts | 74° |
| 2026-04-21 19:59 | 9.34333 | -64.08491 | 18516 ft | 376 kts | 74° |
| 2026-04-21 20:00 | 9.35018 | -64.05914 | 17957 ft | 373 kts | 74° |
| 2026-04-21 20:00 | 9.35692 | -64.03374 | 17417 ft | 370 kts | 74° |
| 2026-04-21 20:00 | 9.36365 | -64.00840 | 16873 ft | 368 kts | 74° |
| 2026-04-21 20:00 | 9.37031 | -63.98335 | 16334 ft | 365 kts | 74° |
| 2026-04-21 20:01 | 9.37685 | -63.95872 | 15801 ft | 363 kts | 74° |
| 2026-04-21 20:01 | 9.38350 | -63.93366 | 15248 ft | 360 kts | 74° |
| 2026-04-21 20:01 | 9.38998 | -63.90925 | 14717 ft | 358 kts | 75° |
| 2026-04-21 20:01 | 9.39645 | -63.88487 | 14189 ft | 355 kts | 75° |
| 2026-04-21 20:02 | 9.40292 | -63.86052 | 13660 ft | 353 kts | 75° |
| 2026-04-21 20:02 | 9.40930 | -63.83643 | 13123 ft | 351 kts | 75° |
| 2026-04-21 20:02 | 9.41556 | -63.81283 | 12599 ft | 349 kts | 75° |
| 2026-04-21 20:02 | 9.42194 | -63.78876 | 12066 ft | 346 kts | 75° |
| 2026-04-21 20:03 | 9.42816 | -63.76532 | 11547 ft | 344 kts | 75° |
| 2026-04-21 20:03 | 9.43438 | -63.74186 | 11025 ft | 341 kts | 75° |
| 2026-04-21 20:03 | 9.44051 | -63.71874 | 10530 ft | 338 kts | 76° |
| 2026-04-21 20:03 | 9.44658 | -63.69585 | 10237 ft | 328 kts | 76° |
| 2026-04-21 20:04 | 9.45240 | -63.67380 | 10114 ft | 312 kts | 76° |
| 2026-04-21 20:04 | 9.45796 | -63.65282 | 9975 ft | 299 kts | 76° |
| 2026-04-21 20:04 | 9.46271 | -63.63486 | 9683 ft | 295 kts | 76° |
| 2026-04-21 20:04 | 9.46805 | -63.61462 | 9289 ft | 293 kts | 76° |
| 2026-04-21 20:05 | 9.47330 | -63.59478 | 9073 ft | 284 kts | 76° |
| 2026-04-21 20:05 | 9.47838 | -63.57551 | 8841 ft | 276 kts | 76° |
| 2026-04-21 20:05 | 9.48331 | -63.55687 | 8605 ft | 269 kts | 75° |
| 2026-04-21 20:05 | 9.48812 | -63.53862 | 8377 ft | 263 kts | 76° |
| 2026-04-21 20:06 | 9.49281 | -63.52079 | 8151 ft | 256 kts | 76° |
| 2026-04-21 20:06 | 9.49744 | -63.50325 | 7880 ft | 253 kts | 75° |
| 2026-04-21 20:06 | 9.50200 | -63.48607 | 7586 ft | 250 kts | 75° |
| 2026-04-21 20:06 | 9.50657 | -63.46896 | 7311 ft | 247 kts | 75° |
| 2026-04-21 20:07 | 9.51105 | -63.45209 | 7056 ft | 244 kts | 75° |
| 2026-04-21 20:07 | 9.51542 | -63.43564 | 6809 ft | 239 kts | 75° |
| 2026-04-21 20:07 | 9.51976 | -63.41958 | 6575 ft | 230 kts | 72° |
| 2026-04-21 20:07 | 9.52655 | -63.40516 | 6408 ft | 219 kts | 52° |
| 2026-04-21 20:08 | 9.53698 | -63.39398 | 6073 ft | 217 kts | 44° |
| 2026-04-21 20:08 | 9.54776 | -63.38304 | 5748 ft | 216 kts | 50° |
| 2026-04-21 20:08 | 9.55804 | -63.37065 | 5445 ft | 236 kts | 49° |
| 2026-04-21 20:08 | 9.56884 | -63.35840 | 5127 ft | 234 kts | 49° |
| 2026-04-21 20:09 | 9.57993 | -63.34557 | 4828 ft | 243 kts | 48° |
| 2026-04-21 20:09 | 9.59140 | -63.33290 | 4530 ft | 237 kts | 47° |
| 2026-04-21 20:09 | 9.60252 | -63.32069 | 4229 ft | 233 kts | 47° |
| 2026-04-21 20:09 | 9.60875 | -63.31373 | 4051 ft | 231 kts | 48° |
| 2026-04-21 20:10 | 9.61947 | -63.30161 | 3744 ft | 227 kts | 48° |
| 2026-04-21 20:10 | 9.62995 | -63.28936 | 3429 ft | 226 kts | 49° |
| 2026-04-21 20:10 | 9.64030 | -63.27739 | 3123 ft | 222 kts | 48° |
| 2026-04-21 20:10 | 9.65064 | -63.26577 | 2834 ft | 216 kts | 47° |
| 2026-04-21 20:11 | 9.66062 | -63.25459 | 2548 ft | 210 kts | 47° |
| 2026-04-21 20:11 | 9.67036 | -63.24355 | 2266 ft | 203 kts | 48° |
| 2026-04-21 20:11 | 9.67953 | -63.23310 | 2002 ft | 188 kts | 47° |
| 2026-04-21 20:11 | 9.68784 | -63.22364 | 1762 ft | 169 kts | 47° |
| 2026-04-21 20:12 | 9.69533 | -63.21509 | 1554 ft | 151 kts | 47° |
| 2026-04-21 20:12 | 9.70207 | -63.20732 | 1348 ft | 135 kts | 49° |
| 2026-04-21 20:12 | 9.70821 | -63.20021 | 1169 ft | 132 kts | 48° |
| 2026-04-21 20:12 | 9.71439 | -63.19329 | 992 ft | 130 kts | 47° |
| 2026-04-21 20:13 | 9.72066 | -63.18617 | 813 ft | 133 kts | 49° |
| 2026-04-21 20:13 | 9.72678 | -63.17907 | 630 ft | 131 kts | 49° |
| 2026-04-21 20:13 | 9.73296 | -63.17203 | 452 ft | 132 kts | 48° |
| 2026-04-21 20:13 | 9.73899 | -63.16508 | 322 ft | 129 kts | 48° |
| 2026-04-21 20:14 | 9.74465 | -63.15827 | 229 ft | 117 kts | 47° |
| 2026-04-21 20:14 | 9.74771 | -63.15493 | 217 ft | 0 kts | 47° |
| 2026-04-21 20:14 | 9.74783 | -63.15480 | 217 ft | 8 kts | 48° |
| 2026-04-21 20:15 | 9.74840 | -63.15406 | 214 ft | 11 kts | 32° |
| 2026-04-21 20:15 | 9.74846 | -63.15402 | 214 ft | 0 kts | 31° |
| 2026-04-21 20:15 | 9.74848 | -63.15401 | 214 ft | 2 kts | 31° |
| 2026-04-21 20:15 | 9.74846 | -63.15416 | 215 ft | 6 kts | 234° |
| 2026-04-21 20:16 | 9.74797 | -63.15468 | 217 ft | 13 kts | 226° |
| 2026-04-21 20:16 | 9.74803 | -63.15564 | 220 ft | 17 kts | 314° |
| 2026-04-21 20:16 | 9.74850 | -63.15596 | 221 ft | 0 kts | 344° |